Time,TemperatureF,DewpointF,PressureIn,WindDirection,WindDirectionDegrees,WindSpeedMPH,WindSpeedGustMPH,Humidity,HourlyPrecipIn,Conditions,Clouds,dailyrainin,SolarRadiationWatts/m^2,SoftwareType,DateUTC
2013-02-23 00:01:00,30.0,25.0,-100.00,ESE,119,13.0,29.0,80,0.00,,,0.00,0.000000,,2013-02-23 07:01:00,
2013-02-23 00:11:00,30.0,25.0,-100.00,ESE,119,13.0,29.0,80,0.00,,,0.00,0.000000,,2013-02-23 07:11:00,
2013-02-23 00:21:00,30.0,25.0,-100.00,ESE,119,13.0,29.0,80,0.00,,,0.00,0.000000,,2013-02-23 07:21:00,
2013-02-23 00:31:00,30.0,25.0,-100.00,ESE,119,13.0,29.0,80,0.00,,,0.00,0.000000,,2013-02-23 07:31:00,
2013-02-23 01:01:00,29.0,24.0,-100.00,ESE,105,12.0,21.0,82,0.00,,,0.00,0.000000,,2013-02-23 08:01:00,
2013-02-23 01:11:00,29.0,24.0,-100.00,ESE,105,12.0,21.0,82,0.00,,,0.00,0.000000,,2013-02-23 08:11:00,
2013-02-23 01:21:00,29.0,24.0,-100.00,ESE,105,12.0,21.0,82,0.00,,,0.00,0.000000,,2013-02-23 08:21:00,
2013-02-23 01:31:00,29.0,24.0,-100.00,ESE,105,12.0,21.0,82,0.00,,,0.00,0.000000,,2013-02-23 08:31:00,
2013-02-23 01:52:00,28.0,27.0,-100.00,East,101,9.0,14.0,94,0.00,,,0.00,0.000000,,2013-02-23 08:52:00,
2013-02-23 02:01:00,28.0,27.0,-100.00,East,101,9.0,14.0,94,0.00,,,0.00,0.000000,,2013-02-23 09:01:00,
2013-02-23 02:11:00,28.0,27.0,-100.00,East,101,9.0,14.0,94,0.00,,,0.00,0.000000,,2013-02-23 09:11:00,
2013-02-23 02:21:00,28.0,27.0,-100.00,East,101,9.0,14.0,94,0.00,,,0.00,0.000000,,2013-02-23 09:21:00,
2013-02-23 02:31:00,28.0,27.0,-100.00,East,101,9.0,14.0,94,0.00,,,0.00,0.000000,,2013-02-23 09:31:00,
2013-02-23 03:01:00,28.0,27.0,-100.00,NW,305,9.0,16.0,96,0.00,,,0.00,0.000000,,2013-02-23 10:01:00,
2013-02-23 03:11:00,28.0,27.0,-100.00,NW,305,9.0,16.0,96,0.00,,,0.00,0.000000,,2013-02-23 10:11:00,
2013-02-23 03:21:00,28.0,27.0,-100.00,NW,305,9.0,16.0,96,0.00,,,0.00,0.000000,,2013-02-23 10:21:00,
2013-02-23 03:31:00,28.0,27.0,-100.00,NW,305,9.0,16.0,96,0.00,,,0.00,0.000000,,2013-02-23 10:31:00,
2013-02-23 04:02:00,25.0,23.0,-100.00,NNW,336,4.0,18.0,93,0.00,,,0.00,0.000000,,2013-02-23 11:02:00,
2013-02-23 04:11:00,25.0,23.0,-100.00,NNW,336,4.0,18.0,93,0.00,,,0.00,0.000000,,2013-02-23 11:11:00,
2013-02-23 04:21:00,25.0,23.0,-100.00,NNW,336,4.0,18.0,93,0.00,,,0.00,0.000000,,2013-02-23 11:21:00,
2013-02-23 04:32:00,25.0,23.0,-100.00,NNW,336,4.0,18.0,93,0.00,,,0.00,0.000000,,2013-02-23 11:32:00,
2013-02-23 05:01:00,23.0,21.0,-100.00,NNW,327,4.0,15.0,90,0.00,,,0.00,0.000000,,2013-02-23 12:01:00,
2013-02-23 05:11:00,23.0,21.0,-100.00,NNW,327,4.0,15.0,90,0.00,,,0.00,0.000000,,2013-02-23 12:11:00,
2013-02-23 05:21:00,23.0,21.0,-100.00,NNW,327,4.0,15.0,90,0.00,,,0.00,0.000000,,2013-02-23 12:21:00,
2013-02-23 05:32:00,23.0,21.0,-100.00,NNW,327,4.0,15.0,90,0.00,,,0.00,0.000000,,2013-02-23 12:32:00,
2013-02-23 06:01:00,22.0,17.0,-100.00,NNW,338,1.0,10.0,81,0.00,,,0.00,0.000000,,2013-02-23 13:01:00,
2013-02-23 06:11:00,22.0,17.0,-100.00,NNW,338,1.0,10.0,81,0.00,,,0.00,0.000000,,2013-02-23 13:11:00,
2013-02-23 06:22:00,22.0,17.0,-100.00,NNW,338,1.0,10.0,81,0.00,,,0.00,0.000000,,2013-02-23 13:22:00,
2013-02-23 06:31:00,22.0,17.0,-100.00,NNW,338,1.0,10.0,81,0.00,,,0.00,0.000000,,2013-02-23 13:31:00,
2013-02-23 07:02:00,21.0,17.0,-100.00,WNW,283,1.0,6.0,86,0.00,,,0.00,0.000000,,2013-02-23 14:02:00,
2013-02-23 07:11:00,21.0,17.0,-100.00,WNW,283,1.0,6.0,86,0.00,,,0.00,0.000000,,2013-02-23 14:11:00,
2013-02-23 07:21:00,21.0,17.0,-100.00,WNW,283,1.0,6.0,86,0.00,,,0.00,0.000000,,2013-02-23 14:21:00,
2013-02-23 07:32:00,21.0,17.0,-100.00,WNW,283,1.0,6.0,86,0.00,,,0.00,0.000000,,2013-02-23 14:32:00,
2013-02-23 08:01:00,20.0,16.0,-100.00,West,265,2.0,4.0,83,0.00,,,0.00,1.000000,,2013-02-23 15:01:00,
2013-02-23 08:11:00,20.0,16.0,-100.00,West,265,2.0,4.0,83,0.00,,,0.00,1.000000,,2013-02-23 15:11:00,
2013-02-23 08:21:00,20.0,16.0,-100.00,West,265,2.0,4.0,83,0.00,,,0.00,1.000000,,2013-02-23 15:21:00,
2013-02-23 08:31:00,20.0,16.0,-100.00,West,265,2.0,4.0,83,0.00,,,0.00,1.000000,,2013-02-23 15:31:00,
2013-02-23 09:01:00,21.0,17.0,-100.00,ESE,106,3.0,6.0,84,0.00,,,0.00,37.000000,,2013-02-23 16:01:00,
2013-02-23 09:11:00,21.0,17.0,-100.00,ESE,106,3.0,6.0,84,0.00,,,0.00,37.000000,,2013-02-23 16:11:00,
2013-02-23 09:21:00,21.0,17.0,-100.00,ESE,106,3.0,6.0,84,0.00,,,0.00,37.000000,,2013-02-23 16:21:00,
2013-02-23 09:31:00,21.0,17.0,-100.00,ESE,106,3.0,6.0,84,0.00,,,0.00,37.000000,,2013-02-23 16:31:00,
2013-02-23 10:01:00,24.0,18.0,-100.00,ESE,110,3.0,6.0,78,0.00,,,0.00,163.000000,,2013-02-23 17:01:00,
2013-02-23 10:11:00,24.0,18.0,-100.00,ESE,110,3.0,6.0,78,0.00,,,0.00,163.000000,,2013-02-23 17:11:00,
2013-02-23 10:21:00,24.0,18.0,-100.00,ESE,110,3.0,6.0,78,0.00,,,0.00,163.000000,,2013-02-23 17:21:00,
2013-02-23 10:31:00,24.0,18.0,-100.00,ESE,110,3.0,6.0,78,0.00,,,0.00,163.000000,,2013-02-23 17:31:00,
2013-02-23 11:01:00,29.0,19.0,-100.00,ESE,113,3.0,7.0,67,0.01,,,0.01,384.000000,,2013-02-23 18:01:00,
2013-02-23 11:12:00,29.0,19.0,-100.00,ESE,113,3.0,7.0,67,0.01,,,0.01,384.000000,,2013-02-23 18:12:00,
2013-02-23 11:21:00,29.0,19.0,-100.00,ESE,113,3.0,7.0,67,0.01,,,0.01,384.000000,,2013-02-23 18:21:00,
2013-02-23 11:31:00,29.0,19.0,-100.00,ESE,113,3.0,7.0,67,0.01,,,0.01,384.000000,,2013-02-23 18:31:00,
2013-02-23 12:01:00,29.0,17.0,-100.00,NNW,329,3.0,10.0,60,0.06,,,0.07,501.000000,,2013-02-23 19:01:00,
2013-02-23 12:11:00,29.0,17.0,-100.00,NNW,329,3.0,10.0,60,0.06,,,0.07,501.000000,,2013-02-23 19:11:00,
2013-02-23 12:21:00,29.0,17.0,-100.00,NNW,329,3.0,10.0,60,0.06,,,0.07,501.000000,,2013-02-23 19:21:00,
2013-02-23 12:32:00,29.0,17.0,-100.00,NNW,329,3.0,10.0,60,0.06,,,0.07,501.000000,,2013-02-23 19:32:00,
2013-02-23 13:01:00,27.0,13.0,-100.00,WNW,292,6.0,19.0,55,0.00,,,0.07,352.000000,,2013-02-23 20:01:00,
2013-02-23 13:11:00,27.0,13.0,-100.00,WNW,292,6.0,19.0,55,0.00,,,0.07,352.000000,,2013-02-23 20:11:00,
2013-02-23 13:21:00,27.0,13.0,-100.00,WNW,292,6.0,19.0,55,0.00,,,0.07,352.000000,,2013-02-23 20:21:00,
2013-02-23 13:31:00,27.0,13.0,-100.00,WNW,292,6.0,19.0,55,0.00,,,0.07,352.000000,,2013-02-23 20:31:00,
2013-02-23 14:01:00,28.0,14.0,-100.00,West,274,6.0,15.0,56,0.00,,,0.07,336.000000,,2013-02-23 21:01:00,
2013-02-23 14:11:00,28.0,14.0,-100.00,West,274,6.0,15.0,56,0.00,,,0.07,336.000000,,2013-02-23 21:11:00,
2013-02-23 14:22:00,28.0,14.0,-100.00,West,274,6.0,15.0,56,0.00,,,0.07,336.000000,,2013-02-23 21:22:00,
2013-02-23 14:31:00,28.0,14.0,-100.00,West,274,6.0,15.0,56,0.00,,,0.07,336.000000,,2013-02-23 21:31:00,
2013-02-23 15:01:00,31.0,14.0,-100.00,West,274,7.0,15.0,48,0.00,,,0.07,441.000000,,2013-02-23 22:01:00,
2013-02-23 15:11:00,31.0,14.0,-100.00,West,274,7.0,15.0,48,0.00,,,0.07,441.000000,,2013-02-23 22:11:00,
2013-02-23 15:21:00,31.0,14.0,-100.00,West,274,7.0,15.0,48,0.00,,,0.07,441.000000,,2013-02-23 22:21:00,
2013-02-23 15:31:00,31.0,14.0,-100.00,West,274,7.0,15.0,48,0.00,,,0.07,441.000000,,2013-02-23 22:31:00,
2013-02-23 15:52:00,29.0,14.0,-100.00,NNW,336,5.0,12.0,52,0.00,,,0.07,333.000000,,2013-02-23 22:52:00,
2013-02-23 16:01:00,29.0,14.0,-100.00,NNW,336,5.0,12.0,52,0.00,,,0.07,333.000000,,2013-02-23 23:01:00,
2013-02-23 16:11:00,29.0,14.0,-100.00,NNW,336,5.0,12.0,52,0.00,,,0.07,333.000000,,2013-02-23 23:11:00,
2013-02-23 16:21:00,29.0,14.0,-100.00,NNW,336,5.0,12.0,52,0.00,,,0.07,333.000000,,2013-02-23 23:21:00,
2013-02-23 16:31:00,29.0,14.0,-100.00,NNW,336,5.0,12.0,52,0.00,,,0.07,333.000000,,2013-02-23 23:31:00,
2013-02-23 17:01:00,28.0,13.0,-100.00,WNW,291,5.0,11.0,53,0.00,,,0.07,144.000000,,2013-02-24 00:01:00,
2013-02-23 17:11:00,28.0,13.0,-100.00,WNW,291,5.0,11.0,53,0.00,,,0.07,144.000000,,2013-02-24 00:11:00,
2013-02-23 17:22:00,28.0,13.0,-100.00,WNW,291,5.0,11.0,53,0.00,,,0.07,144.000000,,2013-02-24 00:22:00,
2013-02-23 17:31:00,28.0,13.0,-100.00,WNW,291,5.0,11.0,53,0.00,,,0.07,144.000000,,2013-02-24 00:31:00,
2013-02-23 18:01:00,26.0,17.0,-100.00,SSW,207,2.0,11.0,67,0.00,,,0.07,90.000000,,2013-02-24 01:01:00,
2013-02-23 18:11:00,26.0,17.0,-100.00,SSW,207,2.0,11.0,67,0.00,,,0.07,90.000000,,2013-02-24 01:11:00,
2013-02-23 18:22:00,26.0,17.0,-100.00,SSW,207,2.0,11.0,67,0.00,,,0.07,90.000000,,2013-02-24 01:22:00,
2013-02-23 18:31:00,26.0,17.0,-100.00,SSW,207,2.0,11.0,67,0.00,,,0.07,90.000000,,2013-02-24 01:31:00,
2013-02-23 19:01:00,25.0,16.0,-100.00,NNW,346,3.0,9.0,67,0.00,,,0.07,12.000000,,2013-02-24 02:01:00,
2013-02-23 19:11:00,25.0,16.0,-100.00,NNW,346,3.0,9.0,67,0.00,,,0.07,12.000000,,2013-02-24 02:11:00,
2013-02-23 19:21:00,25.0,16.0,-100.00,NNW,346,3.0,9.0,67,0.00,,,0.07,12.000000,,2013-02-24 02:21:00,
2013-02-23 19:31:00,25.0,16.0,-100.00,NNW,346,3.0,9.0,67,0.00,,,0.07,12.000000,,2013-02-24 02:31:00,
2013-02-23 20:01:00,24.0,18.0,-100.00,WNW,302,1.0,8.0,77,0.00,,,0.07,0.000000,,2013-02-24 03:01:00,
2013-02-23 20:11:00,24.0,18.0,-100.00,WNW,302,1.0,8.0,77,0.00,,,0.07,0.000000,,2013-02-24 03:11:00,
2013-02-23 20:21:00,24.0,18.0,-100.00,WNW,302,1.0,8.0,77,0.00,,,0.07,0.000000,,2013-02-24 03:21:00,
2013-02-23 20:31:00,24.0,18.0,-100.00,WNW,302,1.0,8.0,77,0.00,,,0.07,0.000000,,2013-02-24 03:31:00,
2013-02-23 21:01:00,22.0,17.0,-100.00,West,271,1.0,5.0,82,0.00,,,0.07,0.000000,,2013-02-24 04:01:00,
2013-02-23 21:11:00,22.0,17.0,-100.00,West,271,1.0,5.0,82,0.00,,,0.07,0.000000,,2013-02-24 04:11:00,
2013-02-23 21:21:00,22.0,17.0,-100.00,West,271,1.0,5.0,82,0.00,,,0.07,0.000000,,2013-02-24 04:21:00,
2013-02-23 21:31:00,22.0,17.0,-100.00,West,271,1.0,5.0,82,0.00,,,0.07,0.000000,,2013-02-24 04:31:00,
2013-02-23 22:01:00,22.0,18.0,-100.00,ENE,71,2.0,5.0,85,0.00,,,0.07,0.000000,,2013-02-24 05:01:00,
2013-02-23 22:11:00,22.0,18.0,-100.00,ENE,71,2.0,5.0,85,0.00,,,0.07,0.000000,,2013-02-24 05:11:00,
2013-02-23 22:21:00,22.0,18.0,-100.00,ENE,71,2.0,5.0,85,0.00,,,0.07,0.000000,,2013-02-24 05:21:00,
2013-02-23 22:32:00,22.0,18.0,-100.00,ENE,71,2.0,5.0,85,0.00,,,0.07,0.000000,,2013-02-24 05:32:00,
2013-02-23 23:01:00,21.0,19.0,-100.00,NW,314,1.0,4.0,91,0.00,,,0.07,0.000000,,2013-02-24 06:01:00,
2013-02-23 23:11:00,21.0,19.0,-100.00,NW,314,1.0,4.0,91,0.00,,,0.07,0.000000,,2013-02-24 06:11:00,
2013-02-23 23:21:00,21.0,19.0,-100.00,NW,314,1.0,4.0,91,0.00,,,0.07,0.000000,,2013-02-24 06:21:00,
2013-02-23 23:31:00,21.0,19.0,-100.00,NW,314,1.0,4.0,91,0.00,,,0.07,0.000000,,2013-02-24 06:31:00,